Maersk Missouri — WAHV — position and weather

sailwx.info

Track history (hours):
 
Tides and Currents Weather Stations Pressure Air Temp Water Temp Dewpoint Dewpoint Depression Visibility Wind Speed Wind Dir Waves Ship Positions

Maersk Missouri

More information available from US FCC via Universal Licensing System and Coast Guard Vessel Documentation Center.

Last reported at 2014-Sep-17 00:00 UTC. Time now 2014-Sep-17 03:28 UTC.
Position N 52°24' W 031°24'.

Type: Cargo ship. MMSI: 369708000.

Wind from 350 at 14 knots

Waves 1.0 meters (3 feet), 5 second period

Barometer 1022.9 mb
Air temperature 10.3 ° C
Visibility: greater than 10.8 NM
Dewpoint 2.6 ° C
Water temperature 12.4 ° C

Date/timePositionNaut miles runAvg speedWind from/ knotsBaromVisibWave heightAir tempDewpointWater temp
2014-Sep-17 00:00N 52°24' W 031°24'81717.0 350 / 141022.910.8 1.010.3 2.612.4
2014-Sep-15 00:00N 57°54' W 009°36'13016.9 130 / 121027.910.8 1.013.610.614.4
2014-Sep-14 16:15N 58°43' W 005°46'3517.1
2014-Sep-14 14:12N 58°43' W 004°39'1116.7
2014-Sep-14 13:33N 58°43' W 004°18'1616.2
2014-Sep-14 12:33N 58°43' W 003°47'1715.2
2014-Sep-14 11:25N 58°43' W 003°14'910.2
2014-Sep-14 10:33N 58°39' W 002°58'1616.3
2014-Sep-14 09:33N 58°26' W 002°38'5417.4
2014-Sep-14 06:25N 57°50' W 001°21'1516.9
2014-Sep-14 05:33N 57°41' W 000°60'19717.0
2014-Sep-13 18:00N 55°36' E 003°36'4317.5 060 / 171031.710.8 0.515.913.615.5
2014-Sep-13 15:31N 55°18' E 004°45'1717.3
2014-Sep-13 14:33N 55°09' E 005°10'1717.0
2014-Sep-13 13:32N 54°59' E 005°34'1616.6
2014-Sep-13 12:33N 54°50' E 005°58'3716.1
2014-Sep-13 10:15N 54°29' E 006°51'1115.9
2014-Sep-13 09:33N 54°23' E 007°06'1616.3
2014-Sep-13 08:33N 54°12' E 007°28'1816.8
2014-Sep-13 07:31N 53°56' E 007°41'1515.5
2014-Sep-13 06:33N 53°50' E 008°04'2019.9
2014-Sep-13 05:33N 53°37' E 008°29'2 2.2
2014-Sep-13 04:33N 53°36' E 008°31'0 0.0
2014-Sep-13 03:31N 53°36' E 008°31'0 0.0
2014-Sep-13 02:31N 53°36' E 008°31'0 0.0
2014-Sep-13 01:31N 53°36' E 008°31'0 0.0
2014-Sep-13 00:32N 53°36' E 008°31'0 0.0
2014-Sep-12 23:33N 53°36' E 008°31'0 0.0
2014-Sep-12 22:33N 53°36' E 008°31'0 0.0
2014-Sep-12 21:31N 53°36' E 008°31'0 0.0
2014-Sep-12 20:32N 53°36' E 008°31'0 0.0
2014-Sep-12 19:32N 53°36' E 008°31'0 0.0
2014-Sep-12 18:33N 53°36' E 008°31'0 0.0
2014-Sep-12 17:33N 53°36' E 008°31'0 0.0
2014-Sep-12 16:31N 53°36' E 008°31'0 0.0
2014-Sep-12 15:32N 53°36' E 008°31'0 0.0
2014-Sep-12 14:32N 53°36' E 008°31'0 0.0
2014-Sep-12 13:33N 53°36' E 008°31'0 0.0
2014-Sep-12 12:31N 53°36' E 008°31'0 0.0
2014-Sep-12 11:33N 53°36' E 008°31'0 0.0
2014-Sep-12 10:33N 53°36' E 008°31'1 0.9
2014-Sep-12 09:34N 53°36' E 008°30'1414.5
2014-Sep-12 08:34N 53°45' E 008°12'1414.4
2014-Sep-12 07:34N 53°52' E 007°50'6 6.1
2014-Sep-12 06:32N 53°54' E 007°40'18 8.0
2014-Sep-12 04:18N 53°53' E 007°09'1215.3
2014-Sep-12 03:31N 53°50' E 006°50'1717.1
2014-Sep-12 02:30N 53°46' E 006°21'1617.3
2014-Sep-12 01:33N 53°40' E 005°55'1717.4
2014-Sep-12 00:34N 53°35' E 005°27'1717.3
2014-Sep-11 23:33N 53°29' E 005°00'1817.3
2014-Sep-11 22:33N 53°19' E 004°36'1515.2
2014-Sep-11 21:33N 53°11' E 004°14'1616.3
2014-Sep-11 20:33N 53°01' E 003°53'2016.2
2014-Sep-11 19:18N 52°49' E 003°26'6016.0
2014-Sep-11 15:33N 52°12' E 002°08'1716.6
2014-Sep-11 14:33N 51°59' E 001°51'1212.0
2014-Sep-11 13:33N 51°52' E 001°36'1211.5
2014-Sep-11 12:33N 51°56' E 001°19'2 1.5
2014-Sep-11 11:31N 51°58' E 001°18'0 0.0
2014-Sep-11 10:32N 51°58' E 001°18'0 0.0
2014-Sep-11 09:32N 51°58' E 001°18'0 0.0
2014-Sep-11 08:33N 51°58' E 001°18'0 0.0
2014-Sep-11 07:31N 51°58' E 001°18'0 0.0
2014-Sep-11 06:31N 51°58' E 001°18'0 0.0
2014-Sep-11 05:32N 51°58' E 001°18'0 0.0
2014-Sep-11 04:33N 51°58' E 001°18'0 0.0
2014-Sep-11 03:33N 51°58' E 001°18'0 0.0
2014-Sep-11 02:31N 51°58' E 001°18'0 0.0
2014-Sep-11 01:32N 51°58' E 001°18'0 0.0
2014-Sep-11 00:32N 51°58' E 001°18'0 0.0
2014-Sep-10 23:33N 51°58' E 001°18'0 0.3
2014-Sep-10 22:34N 51°57' E 001°18'9 8.9
2014-Sep-10 21:33N 51°56' E 001°33'10 9.6
2014-Sep-10 20:33N 51°51' E 001°46'1212.4
2014-Sep-10 19:34N 51°53' E 002°06'2511.5
2014-Sep-10 17:22N 52°01' E 002°45'1111.4
2014-Sep-10 16:24N 52°02' E 003°02'1011.2
2014-Sep-10 15:33N 52°03' E 003°18'1110.7
2014-Sep-10 14:29N 52°03' E 003°37'1010.7
2014-Sep-10 13:34N 52°03' E 003°53'9 9.0
2014-Sep-10 12:34N 51°58' E 004°04'1 0.8
2014-Sep-10 11:33N 51°58' E 004°03'0 0.0
2014-Sep-10 10:33N 51°58' E 004°03'0 0.1
2014-Sep-10 09:28N 51°58' E 004°03'0 0.2
2014-Sep-10 08:32N 51°58' E 004°03'0 0.0
2014-Sep-10 07:33N 51°58' E 004°03'0 0.0
2014-Sep-10 06:31N 51°58' E 004°03'0 0.0
2014-Sep-10 05:28N 51°58' E 004°03'0 0.0
2014-Sep-10 04:32N 51°58' E 004°03'0 0.0
2014-Sep-10 03:32N 51°58' E 004°03'0 0.0
2014-Sep-10 02:30N 51°58' E 004°03'0 0.0
2014-Sep-10 01:22N 51°58' E 004°03'0 0.0
2014-Sep-10 00:31N 51°58' E 004°03'0 0.0
2014-Sep-09 23:32N 51°58' E 004°03'0 0.0
2014-Sep-09 22:33N 51°58' E 004°03'0 0.0
2014-Sep-09 21:33N 51°58' E 004°03'0 0.0
2014-Sep-09 20:25N 51°58' E 004°03'0 0.0
2014-Sep-09 19:31N 51°58' E 004°03'0 0.0
2014-Sep-09 18:32N 51°58' E 004°03'0 0.0
2014-Sep-09 17:33N 51°58' E 004°03'0 0.0
2014-Sep-09 16:33N 51°58' E 004°03'0 0.0
2014-Sep-09 15:31N 51°58' E 004°03'0 0.0
2014-Sep-09 14:31N 51°58' E 004°03'0 0.0
2014-Sep-09 13:32N 51°58' E 004°03'1 1.5
2014-Sep-09 12:33N 51°59' E 004°04'7 6.8
2014-Sep-09 11:33N 51°60' E 003°53'9 8.5
2014-Sep-09 10:33N 51°58' E 003°40'2215.6
2014-Sep-09 09:10N 51°52' E 003°06'1116.5
2014-Sep-09 08:30N 51°48' E 002°50'1819.1
2014-Sep-09 07:33N 51°38' E 002°24'1312.7
2014-Sep-09 06:33N 51°29' E 002°12'1323.1
2014-Sep-09 06:00N 51°18' E 002°00'3 8.1 050 / 81023.410.8 0.515.311.018.0
2014-Sep-09 05:34N 51°17' E 001°55'1515.3
2014-Sep-09 04:34N 51°05' E 001°39'1515.2
2014-Sep-09 03:33N 50°52' E 001°26'3115.3
2014-Sep-09 01:34N 50°30' E 000°53'2015.7
2014-Sep-09 00:17N 50°25' E 000°23'1415.7
2014-Sep-08 23:22N 50°21' E 000°01'1716.4
2014-Sep-08 22:22N 50°18' W 000°24'3518.6
2014-Sep-08 20:29N 50°07' W 001°16'4420.4
2014-Sep-08 18:19N 49°57' W 002°23'516.1
2014-Sep-08 18:00N 49°54' W 002°30'20216.8 070 / 61021.6 5.4 0.517.013.517.0
2014-Sep-08 06:00N 49°42' W 007°42'9315.5 040 / 121019.110.8 1.015.012.816.7
2014-Sep-08 00:00N 49°48' W 010°06'9716.2 080 / 191020.510.8 1.515.511.216.7
2014-Sep-07 18:00N 49°54' W 012°36'28215.7 080 / 191018.3 5.4 1.516.012.416.7
2014-Sep-07 00:00N 49°48' W 019°54'   060 / 181019.010.8 1.015.512.816.0
Track history (hours):
 
Tides and Currents Weather Stations Pressure Air Temp Water Temp Dewpoint Dewpoint Depression Visibility Wind Speed Wind Dir Waves Ship Positions

Maersk Missouri

More information available from US FCC via Universal Licensing System and Coast Guard Vessel Documentation Center.

Last reported at 2014-Sep-17 00:00 UTC. Time now 2014-Sep-17 03:28 UTC.
Position N 52°24' W 031°24'.

Type: Cargo ship. MMSI: 369708000.

Wind from 350 at 14 knots

Waves 1.0 meters (3 feet), 5 second period

Barometer 1022.9 mb
Air temperature 10.3 ° C
Visibility: greater than 10.8 NM
Dewpoint 2.6 ° C
Water temperature 12.4 ° C

Date/timePositionNaut miles runAvg speedWind from/ knotsBaromVisibWave heightAir tempDewpointWater temp
2014-Sep-17 00:00N 52°24' W 031°24'81717.0 350 / 141022.910.8 1.010.3 2.612.4
2014-Sep-15 00:00N 57°54' W 009°36'13016.9 130 / 121027.910.8 1.013.610.614.4
2014-Sep-14 16:15N 58°43' W 005°46'3517.1
2014-Sep-14 14:12N 58°43' W 004°39'1116.7
2014-Sep-14 13:33N 58°43' W 004°18'1616.2
2014-Sep-14 12:33N 58°43' W 003°47'1715.2
2014-Sep-14 11:25N 58°43' W 003°14'910.2
2014-Sep-14 10:33N 58°39' W 002°58'1616.3
2014-Sep-14 09:33N 58°26' W 002°38'5417.4
2014-Sep-14 06:25N 57°50' W 001°21'1516.9
2014-Sep-14 05:33N 57°41' W 000°60'19717.0
2014-Sep-13 18:00N 55°36' E 003°36'4317.5 060 / 171031.710.8 0.515.913.615.5
2014-Sep-13 15:31N 55°18' E 004°45'1717.3
2014-Sep-13 14:33N 55°09' E 005°10'1717.0
2014-Sep-13 13:32N 54°59' E 005°34'1616.6
2014-Sep-13 12:33N 54°50' E 005°58'3716.1
2014-Sep-13 10:15N 54°29' E 006°51'1115.9
2014-Sep-13 09:33N 54°23' E 007°06'1616.3
2014-Sep-13 08:33N 54°12' E 007°28'1816.8
2014-Sep-13 07:31N 53°56' E 007°41'1515.5
2014-Sep-13 06:33N 53°50' E 008°04'2019.9
2014-Sep-13 05:33N 53°37' E 008°29'2 2.2
2014-Sep-13 04:33N 53°36' E 008°31'0 0.0
2014-Sep-13 03:31N 53°36' E 008°31'0 0.0
2014-Sep-13 02:31N 53°36' E 008°31'0 0.0
2014-Sep-13 01:31N 53°36' E 008°31'0 0.0
2014-Sep-13 00:32N 53°36' E 008°31'0 0.0
2014-Sep-12 23:33N 53°36' E 008°31'0 0.0
2014-Sep-12 22:33N 53°36' E 008°31'0 0.0
2014-Sep-12 21:31N 53°36' E 008°31'0 0.0
2014-Sep-12 20:32N 53°36' E 008°31'0 0.0
2014-Sep-12 19:32N 53°36' E 008°31'0 0.0
2014-Sep-12 18:33N 53°36' E 008°31'0 0.0
2014-Sep-12 17:33N 53°36' E 008°31'0 0.0
2014-Sep-12 16:31N 53°36' E 008°31'0 0.0
2014-Sep-12 15:32N 53°36' E 008°31'0 0.0
2014-Sep-12 14:32N 53°36' E 008°31'0 0.0
2014-Sep-12 13:33N 53°36' E 008°31'0 0.0
2014-Sep-12 12:31N 53°36' E 008°31'0 0.0
2014-Sep-12 11:33N 53°36' E 008°31'0 0.0
2014-Sep-12 10:33N 53°36' E 008°31'1 0.9
2014-Sep-12 09:34N 53°36' E 008°30'1414.5
2014-Sep-12 08:34N 53°45' E 008°12'1414.4
2014-Sep-12 07:34N 53°52' E 007°50'6 6.1
2014-Sep-12 06:32N 53°54' E 007°40'18 8.0
2014-Sep-12 04:18N 53°53' E 007°09'1215.3
2014-Sep-12 03:31N 53°50' E 006°50'1717.1
2014-Sep-12 02:30N 53°46' E 006°21'1617.3
2014-Sep-12 01:33N 53°40' E 005°55'1717.4
2014-Sep-12 00:34N 53°35' E 005°27'1717.3
2014-Sep-11 23:33N 53°29' E 005°00'1817.3
2014-Sep-11 22:33N 53°19' E 004°36'1515.2
2014-Sep-11 21:33N 53°11' E 004°14'1616.3
2014-Sep-11 20:33N 53°01' E 003°53'2016.2
2014-Sep-11 19:18N 52°49' E 003°26'6016.0
2014-Sep-11 15:33N 52°12' E 002°08'1716.6
2014-Sep-11 14:33N 51°59' E 001°51'1212.0
2014-Sep-11 13:33N 51°52' E 001°36'1211.5
2014-Sep-11 12:33N 51°56' E 001°19'2 1.5
2014-Sep-11 11:31N 51°58' E 001°18'0 0.0
2014-Sep-11 10:32N 51°58' E 001°18'0 0.0
2014-Sep-11 09:32N 51°58' E 001°18'0 0.0
2014-Sep-11 08:33N 51°58' E 001°18'0 0.0
2014-Sep-11 07:31N 51°58' E 001°18'0 0.0
2014-Sep-11 06:31N 51°58' E 001°18'0 0.0
2014-Sep-11 05:32N 51°58' E 001°18'0 0.0
2014-Sep-11 04:33N 51°58' E 001°18'0 0.0
2014-Sep-11 03:33N 51°58' E 001°18'0 0.0
2014-Sep-11 02:31N 51°58' E 001°18'0 0.0
2014-Sep-11 01:32N 51°58' E 001°18'0 0.0
2014-Sep-11 00:32N 51°58' E 001°18'0 0.0
2014-Sep-10 23:33N 51°58' E 001°18'0 0.3
2014-Sep-10 22:34N 51°57' E 001°18'9 8.9
2014-Sep-10 21:33N 51°56' E 001°33'10 9.6
2014-Sep-10 20:33N 51°51' E 001°46'1212.4
2014-Sep-10 19:34N 51°53' E 002°06'2511.5
2014-Sep-10 17:22N 52°01' E 002°45'1111.4
2014-Sep-10 16:24N 52°02' E 003°02'1011.2
2014-Sep-10 15:33N 52°03' E 003°18'1110.7
2014-Sep-10 14:29N 52°03' E 003°37'1010.7
2014-Sep-10 13:34N 52°03' E 003°53'9 9.0
2014-Sep-10 12:34N 51°58' E 004°04'1 0.8
2014-Sep-10 11:33N 51°58' E 004°03'0 0.0
2014-Sep-10 10:33N 51°58' E 004°03'0 0.1
2014-Sep-10 09:28N 51°58' E 004°03'0 0.2
2014-Sep-10 08:32N 51°58' E 004°03'0 0.0
2014-Sep-10 07:33N 51°58' E 004°03'0 0.0
2014-Sep-10 06:31N 51°58' E 004°03'0 0.0
2014-Sep-10 05:28N 51°58' E 004°03'0 0.0
2014-Sep-10 04:32N 51°58' E 004°03'0 0.0
2014-Sep-10 03:32N 51°58' E 004°03'0 0.0
2014-Sep-10 02:30N 51°58' E 004°03'0 0.0
2014-Sep-10 01:22N 51°58' E 004°03'0 0.0
2014-Sep-10 00:31N 51°58' E 004°03'0 0.0
2014-Sep-09 23:32N 51°58' E 004°03'0 0.0
2014-Sep-09 22:33N 51°58' E 004°03'0 0.0
2014-Sep-09 21:33N 51°58' E 004°03'0 0.0
2014-Sep-09 20:25N 51°58' E 004°03'0 0.0
2014-Sep-09 19:31N 51°58' E 004°03'0 0.0
2014-Sep-09 18:32N 51°58' E 004°03'0 0.0
2014-Sep-09 17:33N 51°58' E 004°03'0 0.0
2014-Sep-09 16:33N 51°58' E 004°03'0 0.0
2014-Sep-09 15:31N 51°58' E 004°03'0 0.0
2014-Sep-09 14:31N 51°58' E 004°03'0 0.0
2014-Sep-09 13:32N 51°58' E 004°03'1 1.5
2014-Sep-09 12:33N 51°59' E 004°04'7 6.8
2014-Sep-09 11:33N 51°60' E 003°53'9 8.5
2014-Sep-09 10:33N 51°58' E 003°40'2215.6
2014-Sep-09 09:10N 51°52' E 003°06'1116.5
2014-Sep-09 08:30N 51°48' E 002°50'1819.1
2014-Sep-09 07:33N 51°38' E 002°24'1312.7
2014-Sep-09 06:33N 51°29' E 002°12'1323.1
2014-Sep-09 06:00N 51°18' E 002°00'3 8.1 050 / 81023.410.8 0.515.311.018.0
2014-Sep-09 05:34N 51°17' E 001°55'1515.3
2014-Sep-09 04:34N 51°05' E 001°39'1515.2
2014-Sep-09 03:33N 50°52' E 001°26'3115.3
2014-Sep-09 01:34N 50°30' E 000°53'2015.7
2014-Sep-09 00:17N 50°25' E 000°23'1415.7
2014-Sep-08 23:22N 50°21' E 000°01'1716.4
2014-Sep-08 22:22N 50°18' W 000°24'3518.6
2014-Sep-08 20:29N 50°07' W 001°16'4420.4
2014-Sep-08 18:19N 49°57' W 002°23'516.1
2014-Sep-08 18:00N 49°54' W 002°30'20216.8 070 / 61021.6 5.4 0.517.013.517.0
2014-Sep-08 06:00N 49°42' W 007°42'9315.5 040 / 121019.110.8 1.015.012.816.7
2014-Sep-08 00:00N 49°48' W 010°06'9716.2 080 / 191020.510.8 1.515.511.216.7
2014-Sep-07 18:00N 49°54' W 012°36'28215.7 080 / 191018.3 5.4 1.516.012.416.7
2014-Sep-07 00:00N 49°48' W 019°54'   060 / 181019.010.8 1.015.512.816.0

Dump ship's entire track history